sensor_id;sensor_type;location;lat;lon;timestamp;P1;durP1;ratioP1;P2;durP2;ratioP2
52956;SDS011;38819;42.692;23.342;2023-08-12T00:00:15;4.50;;;2.33;;
52956;SDS011;38819;42.692;23.342;2023-08-12T00:02:41;3.83;;;2.30;;
52956;SDS011;38819;42.692;23.342;2023-08-12T00:05:07;2.72;;;2.22;;
52956;SDS011;38819;42.692;23.342;2023-08-12T00:07:33;4.90;;;2.22;;
52956;SDS011;38819;42.692;23.342;2023-08-12T00:09:59;4.45;;;2.72;;
52956;SDS011;38819;42.692;23.342;2023-08-12T00:12:28;12.00;;;3.10;;
52956;SDS011;38819;42.692;23.342;2023-08-12T00:14:54;3.75;;;2.13;;
52956;SDS011;38819;42.692;23.342;2023-08-12T00:17:20;2.42;;;2.25;;
52956;SDS011;38819;42.692;23.342;2023-08-12T00:19:47;2.75;;;2.20;;
52956;SDS011;38819;42.692;23.342;2023-08-12T00:22:12;2.65;;;2.45;;
52956;SDS011;38819;42.692;23.342;2023-08-12T00:24:38;6.00;;;2.50;;
52956;SDS011;38819;42.692;23.342;2023-08-12T00:27:04;2.55;;;2.33;;
52956;SDS011;38819;42.692;23.342;2023-08-12T00:29:29;5.20;;;2.58;;
52956;SDS011;38819;42.692;23.342;2023-08-12T00:31:55;2.40;;;2.30;;
52956;SDS011;38819;42.692;23.342;2023-08-12T00:34:21;3.33;;;2.47;;
52956;SDS011;38819;42.692;23.342;2023-08-12T00:36:46;2.92;;;2.10;;
52956;SDS011;38819;42.692;23.342;2023-08-12T00:39:11;4.03;;;2.08;;
52956;SDS011;38819;42.692;23.342;2023-08-12T00:41:37;2.28;;;2.00;;
52956;SDS011;38819;42.692;23.342;2023-08-12T00:44:02;2.88;;;1.95;;
52956;SDS011;38819;42.692;23.342;2023-08-12T00:46:28;4.97;;;2.10;;
52956;SDS011;38819;42.692;23.342;2023-08-12T00:48:54;1.85;;;1.75;;
52956;SDS011;38819;42.692;23.342;2023-08-12T00:51:19;4.22;;;2.35;;
52956;SDS011;38819;42.692;23.342;2023-08-12T00:53:45;3.75;;;2.25;;
52956;SDS011;38819;42.692;23.342;2023-08-12T00:56:11;3.25;;;2.00;;
52956;SDS011;38819;42.692;23.342;2023-08-12T00:58:38;1.90;;;1.80;;
52956;SDS011;38819;42.692;23.342;2023-08-12T01:01:04;3.70;;;2.10;;
52956;SDS011;38819;42.692;23.342;2023-08-12T01:03:30;3.45;;;2.33;;
52956;SDS011;38819;42.692;23.342;2023-08-12T01:05:55;4.10;;;2.42;;
52956;SDS011;38819;42.692;23.342;2023-08-12T01:08:22;2.50;;;2.28;;
52956;SDS011;38819;42.692;23.342;2023-08-12T01:10:53;2.55;;;2.35;;
52956;SDS011;38819;42.692;23.342;2023-08-12T01:13:45;2.70;;;2.28;;
52956;SDS011;38819;42.692;23.342;2023-08-12T01:16:23;2.72;;;2.53;;
52956;SDS011;38819;42.692;23.342;2023-08-12T01:18:54;2.35;;;2.15;;
52956;SDS011;38819;42.692;23.342;2023-08-12T01:21:21;4.80;;;2.47;;
52956;SDS011;38819;42.692;23.342;2023-08-12T01:26:13;2.03;;;1.80;;
52956;SDS011;38819;42.692;23.342;2023-08-12T01:28:38;3.60;;;2.30;;
52956;SDS011;38819;42.692;23.342;2023-08-12T01:31:11;3.10;;;2.30;;
52956;SDS011;38819;42.692;23.342;2023-08-12T01:36:23;8.32;;;2.35;;
52956;SDS011;38819;42.692;23.342;2023-08-12T01:38:51;2.55;;;2.35;;
52956;SDS011;38819;42.692;23.342;2023-08-12T01:41:21;2.65;;;2.33;;
52956;SDS011;38819;42.692;23.342;2023-08-12T01:43:48;2.28;;;2.15;;
52956;SDS011;38819;42.692;23.342;2023-08-12T01:46:14;5.35;;;2.10;;
52956;SDS011;38819;42.692;23.342;2023-08-12T01:48:39;2.40;;;2.17;;
52956;SDS011;38819;42.692;23.342;2023-08-12T01:51:05;2.80;;;2.47;;
52956;SDS011;38819;42.692;23.342;2023-08-12T01:53:30;7.72;;;2.58;;
52956;SDS011;38819;42.692;23.342;2023-08-12T01:55:56;2.58;;;2.35;;
52956;SDS011;38819;42.692;23.342;2023-08-12T01:58:21;2.10;;;1.92;;
52956;SDS011;38819;42.692;23.342;2023-08-12T02:00:47;3.40;;;2.22;;
52956;SDS011;38819;42.692;23.342;2023-08-12T02:03:12;2.75;;;1.85;;
52956;SDS011;38819;42.692;23.342;2023-08-12T02:05:37;2.28;;;2.05;;
52956;SDS011;38819;42.692;23.342;2023-08-12T02:08:03;2.55;;;2.00;;
52956;SDS011;38819;42.692;23.342;2023-08-12T02:10:29;6.47;;;2.00;;
52956;SDS011;38819;42.692;23.342;2023-08-12T02:12:55;2.67;;;2.00;;
52956;SDS011;38819;42.692;23.342;2023-08-12T02:15:20;3.28;;;2.47;;
52956;SDS011;38819;42.692;23.342;2023-08-12T02:17:46;2.90;;;2.50;;
52956;SDS011;38819;42.692;23.342;2023-08-12T02:20:12;2.42;;;2.22;;
52956;SDS011;38819;42.692;23.342;2023-08-12T02:22:37;2.53;;;2.33;;
52956;SDS011;38819;42.692;23.342;2023-08-12T02:25:02;5.85;;;2.10;;
52956;SDS011;38819;42.692;23.342;2023-08-12T02:27:28;5.43;;;2.15;;
52956;SDS011;38819;42.692;23.342;2023-08-12T02:29:53;5.07;;;2.47;;
52956;SDS011;38819;42.692;23.342;2023-08-12T02:32:19;4.32;;;2.40;;
52956;SDS011;38819;42.692;23.342;2023-08-12T02:34:44;4.57;;;2.13;;
52956;SDS011;38819;42.692;23.342;2023-08-12T02:37:10;2.92;;;2.28;;
52956;SDS011;38819;42.692;23.342;2023-08-12T02:39:37;3.55;;;2.70;;
52956;SDS011;38819;42.692;23.342;2023-08-12T02:42:03;3.65;;;2.47;;
52956;SDS011;38819;42.692;23.342;2023-08-12T02:44:28;6.18;;;2.97;;
52956;SDS011;38819;42.692;23.342;2023-08-12T02:46:54;3.08;;;2.67;;
52956;SDS011;38819;42.692;23.342;2023-08-12T02:49:19;9.07;;;3.03;;
52956;SDS011;38819;42.692;23.342;2023-08-12T02:51:45;2.78;;;2.58;;
52956;SDS011;38819;42.692;23.342;2023-08-12T02:54:10;2.55;;;2.38;;
52956;SDS011;38819;42.692;23.342;2023-08-12T02:56:35;5.63;;;2.80;;
52956;SDS011;38819;42.692;23.342;2023-08-12T02:59:01;2.75;;;2.53;;
52956;SDS011;38819;42.692;23.342;2023-08-12T03:01:26;4.88;;;2.78;;
52956;SDS011;38819;42.692;23.342;2023-08-12T03:03:52;3.28;;;2.53;;
52956;SDS011;38819;42.692;23.342;2023-08-12T03:06:18;3.08;;;2.33;;
52956;SDS011;38819;42.692;23.342;2023-08-12T03:08:43;4.00;;;2.25;;
52956;SDS011;38819;42.692;23.342;2023-08-12T03:11:09;5.22;;;2.67;;
52956;SDS011;38819;42.692;23.342;2023-08-12T03:13:34;4.95;;;2.95;;
52956;SDS011;38819;42.692;23.342;2023-08-12T03:16:00;2.13;;;1.92;;
52956;SDS011;38819;42.692;23.342;2023-08-12T03:18:25;3.80;;;2.00;;
52956;SDS011;38819;42.692;23.342;2023-08-12T03:20:51;3.45;;;2.65;;
52956;SDS011;38819;42.692;23.342;2023-08-12T03:23:16;2.83;;;2.33;;
52956;SDS011;38819;42.692;23.342;2023-08-12T03:25:42;3.83;;;2.63;;
52956;SDS011;38819;42.692;23.342;2023-08-12T03:28:07;3.17;;;2.88;;
52956;SDS011;38819;42.692;23.342;2023-08-12T03:30:32;5.78;;;2.78;;
52956;SDS011;38819;42.692;23.342;2023-08-12T03:32:58;10.55;;;2.78;;
52956;SDS011;38819;42.692;23.342;2023-08-12T03:35:23;6.90;;;3.13;;
52956;SDS011;38819;42.692;23.342;2023-08-12T03:37:49;7.68;;;3.20;;
52956;SDS011;38819;42.692;23.342;2023-08-12T03:40:16;10.27;;;2.75;;
52956;SDS011;38819;42.692;23.342;2023-08-12T03:42:41;3.20;;;3.00;;
52956;SDS011;38819;42.692;23.342;2023-08-12T03:45:07;4.72;;;2.72;;
52956;SDS011;38819;42.692;23.342;2023-08-12T03:47:33;4.35;;;2.72;;
52956;SDS011;38819;42.692;23.342;2023-08-12T03:49:58;8.10;;;3.10;;
52956;SDS011;38819;42.692;23.342;2023-08-12T03:52:23;13.90;;;3.97;;
52956;SDS011;38819;42.692;23.342;2023-08-12T03:54:49;5.75;;;3.25;;
52956;SDS011;38819;42.692;23.342;2023-08-12T03:57:14;8.05;;;3.10;;
52956;SDS011;38819;42.692;23.342;2023-08-12T03:59:40;5.10;;;3.47;;
52956;SDS011;38819;42.692;23.342;2023-08-12T04:02:05;4.38;;;3.15;;
52956;SDS011;38819;42.692;23.342;2023-08-12T04:04:31;4.78;;;3.33;;
52956;SDS011;38819;42.692;23.342;2023-08-12T04:06:56;4.60;;;3.03;;
52956;SDS011;38819;42.692;23.342;2023-08-12T04:09:22;11.15;;;4.30;;
52956;SDS011;38819;42.692;23.342;2023-08-12T04:11:47;4.45;;;3.55;;
52956;SDS011;38819;42.692;23.342;2023-08-12T04:14:13;8.20;;;3.20;;
52956;SDS011;38819;42.692;23.342;2023-08-12T04:16:39;12.40;;;4.15;;
52956;SDS011;38819;42.692;23.342;2023-08-12T04:19:05;8.35;;;3.47;;
52956;SDS011;38819;42.692;23.342;2023-08-12T04:21:30;4.13;;;3.30;;
52956;SDS011;38819;42.692;23.342;2023-08-12T04:23:56;9.57;;;3.30;;
52956;SDS011;38819;42.692;23.342;2023-08-12T04:26:21;5.55;;;3.67;;
52956;SDS011;38819;42.692;23.342;2023-08-12T04:28:46;11.00;;;3.58;;
52956;SDS011;38819;42.692;23.342;2023-08-12T04:31:12;8.07;;;3.80;;
52956;SDS011;38819;42.692;23.342;2023-08-12T04:33:37;7.03;;;3.85;;
52956;SDS011;38819;42.692;23.342;2023-08-12T04:36:03;10.38;;;2.85;;
52956;SDS011;38819;42.692;23.342;2023-08-12T04:38:29;4.75;;;3.17;;
52956;SDS011;38819;42.692;23.342;2023-08-12T04:40:56;9.32;;;3.38;;
52956;SDS011;38819;42.692;23.342;2023-08-12T04:43:21;9.30;;;3.03;;
52956;SDS011;38819;42.692;23.342;2023-08-12T04:45:47;6.20;;;3.40;;
52956;SDS011;38819;42.692;23.342;2023-08-12T04:48:13;3.95;;;2.95;;
52956;SDS011;38819;42.692;23.342;2023-08-12T04:50:38;8.57;;;3.08;;
52956;SDS011;38819;42.692;23.342;2023-08-12T04:53:04;5.53;;;3.15;;
52956;SDS011;38819;42.692;23.342;2023-08-12T04:55:33;4.53;;;3.13;;
52956;SDS011;38819;42.692;23.342;2023-08-12T04:57:59;8.45;;;3.13;;
52956;SDS011;38819;42.692;23.342;2023-08-12T05:00:25;4.45;;;3.03;;
52956;SDS011;38819;42.692;23.342;2023-08-12T05:02:50;4.32;;;2.92;;
52956;SDS011;38819;42.692;23.342;2023-08-12T05:05:16;6.20;;;3.17;;
52956;SDS011;38819;42.692;23.342;2023-08-12T05:07:41;9.82;;;3.47;;
52956;SDS011;38819;42.692;23.342;2023-08-12T05:10:07;3.45;;;3.15;;
52956;SDS011;38819;42.692;23.342;2023-08-12T05:12:32;4.25;;;3.15;;
52956;SDS011;38819;42.692;23.342;2023-08-12T05:14:58;6.30;;;2.80;;
52956;SDS011;38819;42.692;23.342;2023-08-12T05:17:23;5.72;;;2.88;;
52956;SDS011;38819;42.692;23.342;2023-08-12T05:19:49;5.03;;;2.90;;
52956;SDS011;38819;42.692;23.342;2023-08-12T05:22:15;5.15;;;3.15;;
52956;SDS011;38819;42.692;23.342;2023-08-12T05:24:41;3.33;;;2.80;;
52956;SDS011;38819;42.692;23.342;2023-08-12T05:27:06;6.43;;;2.95;;
52956;SDS011;38819;42.692;23.342;2023-08-12T05:29:32;5.28;;;2.58;;
52956;SDS011;38819;42.692;23.342;2023-08-12T05:31:57;5.07;;;3.00;;
52956;SDS011;38819;42.692;23.342;2023-08-12T05:34:23;3.45;;;3.15;;
52956;SDS011;38819;42.692;23.342;2023-08-12T05:36:48;3.40;;;3.10;;
52956;SDS011;38819;42.692;23.342;2023-08-12T05:39:13;6.75;;;3.45;;
52956;SDS011;38819;42.692;23.342;2023-08-12T05:41:40;6.70;;;3.23;;
52956;SDS011;38819;42.692;23.342;2023-08-12T05:44:06;3.53;;;2.42;;
52956;SDS011;38819;42.692;23.342;2023-08-12T05:46:32;4.90;;;3.00;;
52956;SDS011;38819;42.692;23.342;2023-08-12T05:48:57;7.65;;;3.10;;
52956;SDS011;38819;42.692;23.342;2023-08-12T05:51:23;4.93;;;2.53;;
52956;SDS011;38819;42.692;23.342;2023-08-12T05:53:48;5.13;;;3.10;;
52956;SDS011;38819;42.692;23.342;2023-08-12T05:56:14;6.30;;;2.72;;
52956;SDS011;38819;42.692;23.342;2023-08-12T05:58:39;5.95;;;3.50;;
52956;SDS011;38819;42.692;23.342;2023-08-12T06:01:04;5.28;;;3.00;;
52956;SDS011;38819;42.692;23.342;2023-08-12T06:03:30;9.27;;;3.25;;
52956;SDS011;38819;42.692;23.342;2023-08-12T06:05:55;5.00;;;2.95;;
52956;SDS011;38819;42.692;23.342;2023-08-12T06:08:21;8.23;;;3.63;;
52956;SDS011;38819;42.692;23.342;2023-08-12T06:10:46;5.72;;;2.88;;
52956;SDS011;38819;42.692;23.342;2023-08-12T06:13:11;7.13;;;2.95;;
52956;SDS011;38819;42.692;23.342;2023-08-12T06:15:38;4.13;;;2.80;;
52956;SDS011;38819;42.692;23.342;2023-08-12T06:18:04;2.75;;;2.50;;
52956;SDS011;38819;42.692;23.342;2023-08-12T06:20:30;3.90;;;2.58;;
52956;SDS011;38819;42.692;23.342;2023-08-12T06:22:55;2.78;;;2.47;;
52956;SDS011;38819;42.692;23.342;2023-08-12T06:25:21;4.05;;;2.30;;
52956;SDS011;38819;42.692;23.342;2023-08-12T06:27:46;8.43;;;2.97;;
52956;SDS011;38819;42.692;23.342;2023-08-12T06:30:12;7.20;;;2.80;;
52956;SDS011;38819;42.692;23.342;2023-08-12T06:32:38;6.78;;;3.33;;
52956;SDS011;38819;42.692;23.342;2023-08-12T06:35:04;3.33;;;2.65;;
52956;SDS011;38819;42.692;23.342;2023-08-12T06:37:30;4.60;;;2.30;;
52956;SDS011;38819;42.692;23.342;2023-08-12T06:39:55;13.30;;;2.78;;
52956;SDS011;38819;42.692;23.342;2023-08-12T06:42:21;5.07;;;2.90;;
52956;SDS011;38819;42.692;23.342;2023-08-12T06:44:53;5.63;;;2.75;;
52956;SDS011;38819;42.692;23.342;2023-08-12T06:47:20;3.60;;;2.70;;
52956;SDS011;38819;42.692;23.342;2023-08-12T06:49:45;3.47;;;2.33;;
52956;SDS011;38819;42.692;23.342;2023-08-12T06:52:11;6.68;;;3.03;;
52956;SDS011;38819;42.692;23.342;2023-08-12T06:54:37;4.35;;;2.63;;
52956;SDS011;38819;42.692;23.342;2023-08-12T06:57:02;4.10;;;2.83;;
52956;SDS011;38819;42.692;23.342;2023-08-12T06:59:28;5.80;;;2.75;;
52956;SDS011;38819;42.692;23.342;2023-08-12T07:01:53;8.85;;;2.75;;
52956;SDS011;38819;42.692;23.342;2023-08-12T07:04:19;4.03;;;2.88;;
52956;SDS011;38819;42.692;23.342;2023-08-12T07:06:44;4.63;;;3.10;;
52956;SDS011;38819;42.692;23.342;2023-08-12T07:09:09;3.78;;;3.33;;
52956;SDS011;38819;42.692;23.342;2023-08-12T07:11:35;7.05;;;3.03;;
52956;SDS011;38819;42.692;23.342;2023-08-12T07:14:00;7.47;;;2.75;;
52956;SDS011;38819;42.692;23.342;2023-08-12T07:16:26;3.60;;;3.22;;
52956;SDS011;38819;42.692;23.342;2023-08-12T07:18:51;4.88;;;2.83;;
52956;SDS011;38819;42.692;23.342;2023-08-12T07:21:16;3.35;;;3.00;;
52956;SDS011;38819;42.692;23.342;2023-08-12T07:23:42;4.00;;;2.58;;
52956;SDS011;38819;42.692;23.342;2023-08-12T07:26:07;4.28;;;2.60;;
52956;SDS011;38819;42.692;23.342;2023-08-12T07:28:33;5.57;;;2.30;;
52956;SDS011;38819;42.692;23.342;2023-08-12T07:31:00;3.42;;;2.63;;
52956;SDS011;38819;42.692;23.342;2023-08-12T07:33:26;5.30;;;2.60;;
52956;SDS011;38819;42.692;23.342;2023-08-12T07:35:51;4.60;;;2.55;;
52956;SDS011;38819;42.692;23.342;2023-08-12T07:38:17;2.80;;;2.60;;
52956;SDS011;38819;42.692;23.342;2023-08-12T07:40:42;4.97;;;3.08;;
52956;SDS011;38819;42.692;23.342;2023-08-12T07:43:08;2.85;;;2.65;;
52956;SDS011;38819;42.692;23.342;2023-08-12T07:45:33;2.33;;;2.13;;
52956;SDS011;38819;42.692;23.342;2023-08-12T07:47:59;2.90;;;2.33;;
52956;SDS011;38819;42.692;23.342;2023-08-12T07:50:24;3.17;;;2.10;;
52956;SDS011;38819;42.692;23.342;2023-08-12T07:52:50;7.55;;;2.03;;
52956;SDS011;38819;42.692;23.342;2023-08-12T07:55:16;5.50;;;2.35;;
52956;SDS011;38819;42.692;23.342;2023-08-12T07:57:41;5.95;;;2.40;;
52956;SDS011;38819;42.692;23.342;2023-08-12T08:00:07;3.90;;;2.20;;
52956;SDS011;38819;42.692;23.342;2023-08-12T08:02:33;10.63;;;2.60;;
52956;SDS011;38819;42.692;23.342;2023-08-12T08:04:58;3.30;;;2.33;;
52956;SDS011;38819;42.692;23.342;2023-08-12T08:07:24;2.38;;;2.13;;
52956;SDS011;38819;42.692;23.342;2023-08-12T08:09:50;4.10;;;2.20;;
52956;SDS011;38819;42.692;23.342;2023-08-12T08:12:16;7.05;;;2.65;;
52956;SDS011;38819;42.692;23.342;2023-08-12T08:14:42;10.75;;;2.25;;
52956;SDS011;38819;42.692;23.342;2023-08-12T08:17:07;3.58;;;2.50;;
52956;SDS011;38819;42.692;23.342;2023-08-12T08:19:32;3.85;;;2.13;;
52956;SDS011;38819;42.692;23.342;2023-08-12T08:21:58;5.80;;;2.05;;
52956;SDS011;38819;42.692;23.342;2023-08-12T08:24:23;2.35;;;2.15;;
52956;SDS011;38819;42.692;23.342;2023-08-12T08:26:49;3.58;;;2.22;;
52956;SDS011;38819;42.692;23.342;2023-08-12T08:29:14;14.02;;;2.25;;
52956;SDS011;38819;42.692;23.342;2023-08-12T08:31:40;3.50;;;2.28;;
52956;SDS011;38819;42.692;23.342;2023-08-12T08:34:06;2.55;;;2.08;;
52956;SDS011;38819;42.692;23.342;2023-08-12T08:36:31;2.50;;;2.30;;
52956;SDS011;38819;42.692;23.342;2023-08-12T08:38:57;6.38;;;2.53;;
52956;SDS011;38819;42.692;23.342;2023-08-12T08:41:23;2.13;;;1.90;;
52956;SDS011;38819;42.692;23.342;2023-08-12T08:43:49;2.15;;;1.95;;
52956;SDS011;38819;42.692;23.342;2023-08-12T08:46:20;3.28;;;2.45;;
52956;SDS011;38819;42.692;23.342;2023-08-12T08:48:46;3.03;;;2.08;;
52956;SDS011;38819;42.692;23.342;2023-08-12T08:51:13;2.97;;;1.98;;
52956;SDS011;38819;42.692;23.342;2023-08-12T08:53:39;2.10;;;2.00;;
52956;SDS011;38819;42.692;23.342;2023-08-12T08:56:06;5.30;;;2.50;;
52956;SDS011;38819;42.692;23.342;2023-08-12T08:58:36;2.30;;;2.10;;
52956;SDS011;38819;42.692;23.342;2023-08-12T09:01:02;2.53;;;2.17;;
52956;SDS011;38819;42.692;23.342;2023-08-12T09:03:28;2.50;;;2.30;;
52956;SDS011;38819;42.692;23.342;2023-08-12T09:05:54;3.88;;;2.03;;
52956;SDS011;38819;42.692;23.342;2023-08-12T09:08:21;3.60;;;2.30;;
52956;SDS011;38819;42.692;23.342;2023-08-12T09:10:48;5.60;;;2.25;;
52956;SDS011;38819;42.692;23.342;2023-08-12T09:13:14;2.72;;;2.15;;
52956;SDS011;38819;42.692;23.342;2023-08-12T09:15:41;4.00;;;2.35;;
52956;SDS011;38819;42.692;23.342;2023-08-12T09:18:06;5.25;;;2.20;;
52956;SDS011;38819;42.692;23.342;2023-08-12T09:20:32;3.28;;;1.90;;
52956;SDS011;38819;42.692;23.342;2023-08-12T09:22:59;2.15;;;1.90;;
52956;SDS011;38819;42.692;23.342;2023-08-12T09:25:26;3.50;;;2.13;;
52956;SDS011;38819;42.692;23.342;2023-08-12T09:30:20;2.17;;;1.98;;
52956;SDS011;38819;42.692;23.342;2023-08-12T09:32:57;2.22;;;2.00;;
52956;SDS011;38819;42.692;23.342;2023-08-12T09:35:25;2.47;;;2.28;;
52956;SDS011;38819;42.692;23.342;2023-08-12T09:37:57;2.65;;;2.10;;
52956;SDS011;38819;42.692;23.342;2023-08-12T09:40:23;2.50;;;2.05;;
52956;SDS011;38819;42.692;23.342;2023-08-12T09:42:48;2.38;;;1.95;;
52956;SDS011;38819;42.692;23.342;2023-08-12T09:45:15;3.42;;;1.98;;
52956;SDS011;38819;42.692;23.342;2023-08-12T09:47:42;1.85;;;1.75;;
52956;SDS011;38819;42.692;23.342;2023-08-12T09:50:09;3.65;;;2.30;;
52956;SDS011;38819;42.692;23.342;2023-08-12T09:52:35;1.80;;;1.70;;
52956;SDS011;38819;42.692;23.342;2023-08-12T09:55:00;4.72;;;2.15;;
52956;SDS011;38819;42.692;23.342;2023-08-12T09:57:30;2.58;;;1.50;;
52956;SDS011;38819;42.692;23.342;2023-08-12T10:00:02;5.47;;;2.28;;
52956;SDS011;38819;42.692;23.342;2023-08-12T10:02:28;3.88;;;1.92;;
52956;SDS011;38819;42.692;23.342;2023-08-12T10:04:54;5.10;;;1.95;;
52956;SDS011;38819;42.692;23.342;2023-08-12T10:07:23;2.45;;;2.25;;
52956;SDS011;38819;42.692;23.342;2023-08-12T10:09:48;2.92;;;1.90;;
52956;SDS011;38819;42.692;23.342;2023-08-12T10:12:14;1.80;;;1.70;;
52956;SDS011;38819;42.692;23.342;2023-08-12T10:14:40;2.47;;;1.90;;
52956;SDS011;38819;42.692;23.342;2023-08-12T10:17:06;1.75;;;1.50;;
52956;SDS011;38819;42.692;23.342;2023-08-12T10:19:34;2.30;;;1.55;;
52956;SDS011;38819;42.692;23.342;2023-08-12T10:22:00;3.87;;;2.17;;
52956;SDS011;38819;42.692;23.342;2023-08-12T10:24:28;2.40;;;2.20;;
52956;SDS011;38819;42.692;23.342;2023-08-12T10:26:54;6.53;;;2.50;;
52956;SDS011;38819;42.692;23.342;2023-08-12T10:29:22;1.63;;;1.52;;
52956;SDS011;38819;42.692;23.342;2023-08-12T10:31:48;3.42;;;1.52;;
52956;SDS011;38819;42.692;23.342;2023-08-12T10:34:31;6.03;;;1.70;;
52956;SDS011;38819;42.692;23.342;2023-08-12T10:36:58;2.30;;;2.08;;
52956;SDS011;38819;42.692;23.342;2023-08-12T10:39:27;2.13;;;1.70;;
52956;SDS011;38819;42.692;23.342;2023-08-12T10:41:54;3.95;;;2.00;;
52956;SDS011;38819;42.692;23.342;2023-08-12T10:44:20;5.07;;;2.08;;
52956;SDS011;38819;42.692;23.342;2023-08-12T10:46:50;4.05;;;1.77;;
52956;SDS011;38819;42.692;23.342;2023-08-12T10:49:18;7.72;;;1.90;;
52956;SDS011;38819;42.692;23.342;2023-08-12T10:51:46;5.47;;;1.90;;
52956;SDS011;38819;42.692;23.342;2023-08-12T10:54:18;2.03;;;1.48;;
52956;SDS011;38819;42.692;23.342;2023-08-12T10:59:47;2.08;;;1.98;;
52956;SDS011;38819;42.692;23.342;2023-08-12T11:04:48;1.35;;;1.25;;
52956;SDS011;38819;42.692;23.342;2023-08-12T11:07:18;3.65;;;1.70;;
52956;SDS011;38819;42.692;23.342;2023-08-12T11:09:45;3.47;;;1.52;;
52956;SDS011;38819;42.692;23.342;2023-08-12T11:12:17;2.67;;;1.52;;
52956;SDS011;38819;42.692;23.342;2023-08-12T11:14:47;1.60;;;1.40;;
52956;SDS011;38819;42.692;23.342;2023-08-12T11:17:14;1.60;;;1.50;;
52956;SDS011;38819;42.692;23.342;2023-08-12T11:19:41;1.60;;;1.50;;
52956;SDS011;38819;42.692;23.342;2023-08-12T11:22:07;1.33;;;1.30;;
52956;SDS011;38819;42.692;23.342;2023-08-12T11:24:33;1.98;;;1.30;;
52956;SDS011;38819;42.692;23.342;2023-08-12T11:27:01;3.40;;;1.58;;
52956;SDS011;38819;42.692;23.342;2023-08-12T11:29:26;1.70;;;1.50;;
52956;SDS011;38819;42.692;23.342;2023-08-12T11:31:52;2.30;;;1.00;;
52956;SDS011;38819;42.692;23.342;2023-08-12T11:34:18;2.63;;;1.27;;
52956;SDS011;38819;42.692;23.342;2023-08-12T11:36:43;3.70;;;1.13;;
52956;SDS011;38819;42.692;23.342;2023-08-12T11:39:09;2.65;;;1.25;;
52956;SDS011;38819;42.692;23.342;2023-08-12T11:41:34;1.42;;;1.20;;
52956;SDS011;38819;42.692;23.342;2023-08-12T11:43:59;3.20;;;1.50;;
52956;SDS011;38819;42.692;23.342;2023-08-12T11:46:25;1.92;;;1.13;;
52956;SDS011;38819;42.692;23.342;2023-08-12T11:48:50;2.97;;;1.35;;
52956;SDS011;38819;42.692;23.342;2023-08-12T11:51:16;3.55;;;1.33;;
52956;SDS011;38819;42.692;23.342;2023-08-12T11:53:42;1.67;;;1.15;;
52956;SDS011;38819;42.692;23.342;2023-08-12T11:56:07;2.25;;;0.95;;
52956;SDS011;38819;42.692;23.342;2023-08-12T11:58:36;1.35;;;1.25;;
52956;SDS011;38819;42.692;23.342;2023-08-12T12:01:02;3.65;;;2.45;;
52956;SDS011;38819;42.692;23.342;2023-08-12T12:03:28;2.92;;;1.35;;
52956;SDS011;38819;42.692;23.342;2023-08-12T12:05:56;3.83;;;1.55;;
52956;SDS011;38819;42.692;23.342;2023-08-12T12:08:22;2.53;;;1.48;;
52956;SDS011;38819;42.692;23.342;2023-08-12T12:10:47;1.95;;;1.80;;
52956;SDS011;38819;42.692;23.342;2023-08-12T12:13:13;1.98;;;1.38;;
52956;SDS011;38819;42.692;23.342;2023-08-12T12:15:42;2.27;;;1.27;;
52956;SDS011;38819;42.692;23.342;2023-08-12T12:18:11;1.90;;;1.38;;
52956;SDS011;38819;42.692;23.342;2023-08-12T12:20:56;6.65;;;1.60;;
52956;SDS011;38819;42.692;23.342;2023-08-12T12:23:26;2.03;;;1.40;;
52956;SDS011;38819;42.692;23.342;2023-08-12T12:26:01;2.10;;;1.33;;
52956;SDS011;38819;42.692;23.342;2023-08-12T12:28:28;2.17;;;1.30;;
52956;SDS011;38819;42.692;23.342;2023-08-12T12:30:53;3.95;;;2.00;;
52956;SDS011;38819;42.692;23.342;2023-08-12T12:33:19;3.53;;;1.48;;
52956;SDS011;38819;42.692;23.342;2023-08-12T12:35:44;1.50;;;1.38;;
52956;SDS011;38819;42.692;23.342;2023-08-12T12:38:10;2.75;;;1.10;;
52956;SDS011;38819;42.692;23.342;2023-08-12T12:40:36;1.30;;;1.20;;
52956;SDS011;38819;42.692;23.342;2023-08-12T12:43:03;1.52;;;1.42;;
52956;SDS011;38819;42.692;23.342;2023-08-12T12:45:28;1.63;;;1.30;;
52956;SDS011;38819;42.692;23.342;2023-08-12T12:47:54;3.38;;;1.52;;
52956;SDS011;38819;42.692;23.342;2023-08-12T12:50:19;1.73;;;1.60;;
52956;SDS011;38819;42.692;23.342;2023-08-12T12:52:44;1.50;;;1.40;;
52956;SDS011;38819;42.692;23.342;2023-08-12T12:55:10;1.70;;;1.42;;
52956;SDS011;38819;42.692;23.342;2023-08-12T12:57:35;4.50;;;2.35;;
52956;SDS011;38819;42.692;23.342;2023-08-12T13:00:01;2.10;;;1.30;;
52956;SDS011;38819;42.692;23.342;2023-08-12T13:02:26;1.63;;;1.33;;
52956;SDS011;38819;42.692;23.342;2023-08-12T13:04:52;1.38;;;1.27;;
52956;SDS011;38819;42.692;23.342;2023-08-12T13:07:18;1.20;;;1.10;;
52956;SDS011;38819;42.692;23.342;2023-08-12T13:09:43;2.10;;;1.42;;
52956;SDS011;38819;42.692;23.342;2023-08-12T13:12:09;1.05;;;1.02;;
52956;SDS011;38819;42.692;23.342;2023-08-12T13:14:34;1.88;;;1.17;;
52956;SDS011;38819;42.692;23.342;2023-08-12T13:17:00;1.60;;;1.50;;
52956;SDS011;38819;42.692;23.342;2023-08-12T13:19:25;1.33;;;1.23;;
52956;SDS011;38819;42.692;23.342;2023-08-12T13:21:51;5.45;;;1.85;;
52956;SDS011;38819;42.692;23.342;2023-08-12T13:24:16;1.38;;;1.27;;
52956;SDS011;38819;42.692;23.342;2023-08-12T13:26:42;2.75;;;1.75;;
52956;SDS011;38819;42.692;23.342;2023-08-12T13:29:07;1.75;;;1.00;;
52956;SDS011;38819;42.692;23.342;2023-08-12T13:31:33;4.78;;;1.42;;
52956;SDS011;38819;42.692;23.342;2023-08-12T13:33:58;1.20;;;1.20;;
52956;SDS011;38819;42.692;23.342;2023-08-12T13:36:23;3.25;;;1.70;;
52956;SDS011;38819;42.692;23.342;2023-08-12T13:38:49;4.10;;;1.35;;
52956;SDS011;38819;42.692;23.342;2023-08-12T13:41:14;4.13;;;1.90;;
52956;SDS011;38819;42.692;23.342;2023-08-12T13:43:41;4.53;;;1.33;;
52956;SDS011;38819;42.692;23.342;2023-08-12T13:46:06;2.97;;;1.48;;
52956;SDS011;38819;42.692;23.342;2023-08-12T13:48:31;2.08;;;1.08;;
52956;SDS011;38819;42.692;23.342;2023-08-12T13:50:57;2.00;;;1.10;;
52956;SDS011;38819;42.692;23.342;2023-08-12T13:53:22;1.20;;;1.02;;
52956;SDS011;38819;42.692;23.342;2023-08-12T13:55:49;1.52;;;1.17;;
52956;SDS011;38819;42.692;23.342;2023-08-12T13:58:14;1.58;;;1.10;;
52956;SDS011;38819;42.692;23.342;2023-08-12T14:00:40;6.20;;;1.55;;
52956;SDS011;38819;42.692;23.342;2023-08-12T14:03:05;1.88;;;1.60;;
52956;SDS011;38819;42.692;23.342;2023-08-12T14:05:31;4.57;;;2.20;;
52956;SDS011;38819;42.692;23.342;2023-08-12T14:07:56;2.20;;;2.00;;
52956;SDS011;38819;42.692;23.342;2023-08-12T14:10:21;2.17;;;1.98;;
52956;SDS011;38819;42.692;23.342;2023-08-12T14:12:47;2.90;;;1.60;;
52956;SDS011;38819;42.692;23.342;2023-08-12T14:15:14;8.77;;;2.30;;
52956;SDS011;38819;42.692;23.342;2023-08-12T14:17:39;3.15;;;2.83;;
52956;SDS011;38819;42.692;23.342;2023-08-12T14:20:05;5.50;;;1.42;;
52956;SDS011;38819;42.692;23.342;2023-08-12T14:22:33;3.80;;;2.38;;
52956;SDS011;38819;42.692;23.342;2023-08-12T14:24:59;1.67;;;1.58;;
52956;SDS011;38819;42.692;23.342;2023-08-12T14:27:25;4.53;;;1.85;;
52956;SDS011;38819;42.692;23.342;2023-08-12T14:29:50;2.28;;;1.48;;
52956;SDS011;38819;42.692;23.342;2023-08-12T14:32:16;6.00;;;4.88;;
52956;SDS011;38819;42.692;23.342;2023-08-12T14:34:43;10.88;;;3.47;;
52956;SDS011;38819;42.692;23.342;2023-08-12T14:37:11;11.95;;;5.60;;
52956;SDS011;38819;42.692;23.342;2023-08-12T14:39:37;4.53;;;4.07;;